createdAt,value
2023-03-24T00:02:13.509Z,10.70
2023-03-24T00:07:16.277Z,10.60
2023-03-24T00:12:18.560Z,10.60
2023-03-24T00:17:25.330Z,10.60
2023-03-24T00:22:28.496Z,10.50
2023-03-24T00:27:31.276Z,10.40
2023-03-24T00:32:33.297Z,10.40
2023-03-24T00:37:39.299Z,10.40
2023-03-24T00:42:46.002Z,10.40
2023-03-24T00:47:49.970Z,10.30
2023-03-24T00:52:53.138Z,10.30
2023-03-24T00:57:55.063Z,10.30
2023-03-24T01:02:57.797Z,10.20
2023-03-24T01:08:03.360Z,10.10
2023-03-24T01:13:05.759Z,10.20
2023-03-24T01:18:10.160Z,10.20
2023-03-24T01:23:17.287Z,10.10
2023-03-24T01:28:24.882Z,10.10
2023-03-24T01:33:27.025Z,10.00
2023-03-24T01:38:29.272Z,10.00
2023-03-24T01:43:33.288Z,9.90
2023-03-24T01:48:47.271Z,9.90
2023-03-24T01:53:59.488Z,9.80
2023-03-24T01:59:06.380Z,9.70
2023-03-24T02:04:16.171Z,9.70
2023-03-24T02:09:18.354Z,9.60
2023-03-24T02:14:20.343Z,9.50
2023-03-24T02:19:57.371Z,9.50
2023-03-24T02:25:05.886Z,9.40
2023-03-24T02:30:26.316Z,9.40
2023-03-24T02:35:56.182Z,9.30
2023-03-24T02:41:26.795Z,9.30
2023-03-24T02:47:03.290Z,9.30
2023-03-24T02:52:20.563Z,9.40
2023-03-24T02:57:36.760Z,9.40
2023-03-24T03:03:04.648Z,9.50
2023-03-24T03:08:09.448Z,9.50
2023-03-24T03:13:20.358Z,9.60
2023-03-24T03:18:29.190Z,9.60
2023-03-24T03:23:53.811Z,9.60
2023-03-24T03:29:06.467Z,9.60
2023-03-24T03:34:16.192Z,9.60
2023-03-24T03:39:28.962Z,9.60
2023-03-24T03:44:33.838Z,9.60
2023-03-24T03:49:36.714Z,9.60
2023-03-24T03:54:40.386Z,9.70
2023-03-24T03:59:42.350Z,9.70
2023-03-24T04:05:06.482Z,9.80
2023-03-24T04:10:38.514Z,9.80
2023-03-24T04:15:57.773Z,9.90
2023-03-24T04:21:33.336Z,9.90
2023-03-24T04:27:00.459Z,9.90
2023-03-24T04:32:14.422Z,9.90
2023-03-24T04:37:24.332Z,9.90
2023-03-24T04:42:39.310Z,9.90
2023-03-24T04:47:48.462Z,9.90
2023-03-24T04:53:08.252Z,9.90
2023-03-24T04:58:10.635Z,9.90
2023-03-24T05:03:14.178Z,9.80
2023-03-24T05:08:17.605Z,9.80
2023-03-24T05:13:19.470Z,9.70
2023-03-24T05:18:25.669Z,9.70
2023-03-24T05:23:27.789Z,9.60
2023-03-24T05:28:31.884Z,9.60
2023-03-24T05:33:34.474Z,9.60
2023-03-24T05:38:37.473Z,9.60
2023-03-24T05:43:39.702Z,9.70
2023-03-24T05:48:47.105Z,9.70
2023-03-24T05:53:54.193Z,9.70
2023-03-24T05:59:01.110Z,9.80
2023-03-24T06:04:23.926Z,9.80
2023-03-24T06:09:37.079Z,9.90
2023-03-24T06:14:40.635Z,9.90
2023-03-24T06:19:49.724Z,10.00
2023-03-24T06:25:12.910Z,10.00
2023-03-24T06:30:20.182Z,10.10
2023-03-24T06:35:22.400Z,10.20
2023-03-24T06:40:38.171Z,10.20
2023-03-24T06:45:41.409Z,10.30
2023-03-24T06:50:48.465Z,10.30
2023-03-24T06:55:51.380Z,10.40
2023-03-24T07:00:55.967Z,10.50
2023-03-24T07:06:10.609Z,10.50
2023-03-24T07:11:12.871Z,10.50
2023-03-24T07:16:23.092Z,10.60
2023-03-24T07:21:34.277Z,10.70
2023-03-24T07:26:36.344Z,10.70
2023-03-24T07:31:48.714Z,10.80
2023-03-24T07:36:50.996Z,10.80
2023-03-24T07:41:52.873Z,10.90
2023-03-24T07:47:15.339Z,11.00
2023-03-24T07:52:17.275Z,11.10
2023-03-24T07:57:23.564Z,11.10
2023-03-24T08:02:25.820Z,11.20
2023-03-24T08:07:53.556Z,11.20
2023-03-24T08:12:56.798Z,11.40
2023-03-24T08:17:58.678Z,11.40
2023-03-24T08:23:00.981Z,11.50
2023-03-24T08:28:03.044Z,11.60
2023-03-24T08:33:05.361Z,11.70
2023-03-24T08:38:09.252Z,11.70
2023-03-24T08:43:14.738Z,11.70
2023-03-24T08:48:16.506Z,11.70
2023-03-24T08:53:18.495Z,11.70
2023-03-24T08:58:21.371Z,11.60
2023-03-24T09:03:24.006Z,11.60
2023-03-24T09:08:28.574Z,11.60
2023-03-24T09:13:30.591Z,11.60
2023-03-24T09:18:32.641Z,11.50
2023-03-24T09:23:34.851Z,11.50
2023-03-24T09:28:36.659Z,11.40
2023-03-24T09:33:38.609Z,11.40
2023-03-24T09:38:40.327Z,11.40
2023-03-24T09:43:54.085Z,11.40
2023-03-24T09:48:57.607Z,11.40
2023-03-24T09:54:22.673Z,11.40
2023-03-24T09:59:37.694Z,11.40
2023-03-24T10:04:39.726Z,11.30
2023-03-24T10:09:41.515Z,11.40
2023-03-24T10:15:11.170Z,11.40
2023-03-24T10:20:18.744Z,11.40
2023-03-24T10:25:44.746Z,11.50
2023-03-24T10:30:49.504Z,11.50
2023-03-24T10:36:01.999Z,11.60
2023-03-24T10:41:04.743Z,11.60
2023-03-24T10:46:07.190Z,11.60
2023-03-24T10:51:31.779Z,11.70
2023-03-24T10:56:46.016Z,11.80
2023-03-24T11:01:48.810Z,11.80
2023-03-24T11:07:21.582Z,11.90
2023-03-24T11:12:27.324Z,11.90
2023-03-24T11:17:29.277Z,11.90
2023-03-24T11:22:31.091Z,12.00
2023-03-24T11:27:41.291Z,12.00
2023-03-24T11:32:47.303Z,12.00
2023-03-24T11:37:49.234Z,12.00
2023-03-24T11:43:03.212Z,12.10
2023-03-24T11:48:20.519Z,12.10
2023-03-24T11:53:25.443Z,12.10
2023-03-24T11:58:43.933Z,12.00
2023-03-24T12:03:46.463Z,12.10
2023-03-24T12:09:10.019Z,12.00
2023-03-24T12:14:15.719Z,12.10
2023-03-24T12:19:44.655Z,12.20
2023-03-24T12:24:52.358Z,12.30
2023-03-24T12:30:02.162Z,12.30
2023-03-24T12:35:13.497Z,12.40
2023-03-24T12:40:33.901Z,12.50
2023-03-24T12:45:53.214Z,12.60
2023-03-24T12:51:18.074Z,12.60
2023-03-24T12:56:44.627Z,12.90
2023-03-24T13:01:51.563Z,13.20
2023-03-24T13:06:56.595Z,13.50
2023-03-24T13:12:27.091Z,13.60
2023-03-24T13:17:56.903Z,13.90
2023-03-24T13:23:20.023Z,14.00
2023-03-24T13:28:29.337Z,14.00
2023-03-24T13:33:35.055Z,14.00
2023-03-24T13:38:43.990Z,13.80
2023-03-24T13:44:06.250Z,13.70
2023-03-24T13:49:15.473Z,13.60
2023-03-24T13:54:21.522Z,13.50
2023-03-24T13:59:49.426Z,13.40
2023-03-24T14:05:06.376Z,13.40
2023-03-24T14:10:14.027Z,13.30
2023-03-24T14:15:40.727Z,13.30
2023-03-24T14:20:57.807Z,13.20
2023-03-24T14:25:59.857Z,13.20
2023-03-24T14:31:03.520Z,13.30
2023-03-24T14:36:11.846Z,13.40
2023-03-24T14:41:26.623Z,13.40
2023-03-24T14:46:38.143Z,13.50
2023-03-24T14:52:03.721Z,13.50
2023-03-24T14:57:08.057Z,13.40
2023-03-24T15:02:22.374Z,13.40
2023-03-24T15:07:24.137Z,13.60
2023-03-24T15:12:26.034Z,13.80
2023-03-24T15:17:27.846Z,13.80
2023-03-24T15:22:41.404Z,13.80
2023-03-24T15:27:51.002Z,13.70
2023-03-24T15:32:52.918Z,13.70
2023-03-24T15:37:56.928Z,13.60
2023-03-24T15:43:01.543Z,13.60
2023-03-24T15:48:16.077Z,13.50
2023-03-24T15:53:17.809Z,13.50
2023-03-24T15:58:31.941Z,13.50
2023-03-24T16:03:34.884Z,13.40
2023-03-24T16:08:39.193Z,13.40
2023-03-24T16:13:44.931Z,13.30
2023-03-24T16:18:48.685Z,13.20
2023-03-24T16:23:52.600Z,13.20
2023-03-24T16:28:56.901Z,13.10
2023-03-24T16:33:59.279Z,13.10
2023-03-24T16:39:02.592Z,13.00
2023-03-24T16:44:04.384Z,12.90
2023-03-24T16:49:07.494Z,12.80
2023-03-24T16:54:09.330Z,12.80
2023-03-24T16:59:12.446Z,12.70
2023-03-24T17:04:17.359Z,12.60
2023-03-24T17:09:20.643Z,12.50
2023-03-24T17:14:22.835Z,12.40
2023-03-24T17:19:27.220Z,12.30
2023-03-24T17:24:32.734Z,12.20
2023-03-24T17:29:34.472Z,12.20
2023-03-24T17:34:37.780Z,12.20
2023-03-24T17:39:39.528Z,12.20
2023-03-24T17:44:41.243Z,12.20
2023-03-24T17:49:43.290Z,12.20
2023-03-24T17:54:45.888Z,12.20
2023-03-24T17:59:47.806Z,12.20
2023-03-24T18:04:49.594Z,12.20
2023-03-24T18:09:51.661Z,12.10
2023-03-24T18:14:53.783Z,12.10
2023-03-24T18:19:56.319Z,12.00
2023-03-24T18:24:58.314Z,12.00
2023-03-24T18:30:00.267Z,11.90
2023-03-24T18:35:02.415Z,11.80
2023-03-24T18:40:08.707Z,11.60
2023-03-24T18:45:17.245Z,11.50
2023-03-24T18:50:19.024Z,11.40
2023-03-24T18:55:21.813Z,11.30
2023-03-24T19:00:25.071Z,11.20
2023-03-24T19:05:26.795Z,11.10
2023-03-24T19:10:29.638Z,11.00
2023-03-24T19:15:31.712Z,10.90
2023-03-24T19:20:35.273Z,10.80
2023-03-24T19:25:37.044Z,10.60
2023-03-24T19:30:39.143Z,10.50
2023-03-24T19:35:41.137Z,10.40
2023-03-24T19:40:43.084Z,10.40
2023-03-24T19:45:52.878Z,10.30
2023-03-24T19:50:55.465Z,10.20
2023-03-24T19:55:58.171Z,10.20
2023-03-24T20:01:00.068Z,10.10
2023-03-24T20:06:09.709Z,10.10
2023-03-24T20:11:12.202Z,10.00
2023-03-24T20:16:14.035Z,10.00
2023-03-24T20:21:22.219Z,9.90
2023-03-24T20:26:24.064Z,9.80
2023-03-24T20:31:26.490Z,9.70
2023-03-24T20:36:28.294Z,9.70
2023-03-24T20:41:30.351Z,9.70
2023-03-24T20:46:32.289Z,9.70
2023-03-24T20:51:34.125Z,9.60
2023-03-24T20:56:35.982Z,9.60
2023-03-24T21:01:37.879Z,9.50
2023-03-24T21:06:39.693Z,9.40
2023-03-24T21:11:41.417Z,9.30
2023-03-24T21:16:43.647Z,9.30
2023-03-24T21:21:49.374Z,9.30
2023-03-24T21:26:51.420Z,9.20
2023-03-24T21:31:53.391Z,9.20
2023-03-24T21:36:55.681Z,9.20
2023-03-24T21:41:57.639Z,9.20
2023-03-24T21:47:00.384Z,9.20
2023-03-24T21:52:03.122Z,9.10
2023-03-24T21:57:04.958Z,9.00
2023-03-24T22:02:19.843Z,9.00
2023-03-24T22:07:22.509Z,9.00
2023-03-24T22:12:24.268Z,9.10
2023-03-24T22:17:26.505Z,9.10
2023-03-24T22:22:28.287Z,9.10
2023-03-24T22:27:30.988Z,9.10
2023-03-24T22:32:33.029Z,9.10
2023-03-24T22:37:34.960Z,9.10
2023-03-24T22:42:36.865Z,9.10
2023-03-24T22:47:38.745Z,9.10
2023-03-24T22:52:40.685Z,9.10
2023-03-24T22:57:42.435Z,9.10
2023-03-24T23:02:44.359Z,9.10
2023-03-24T23:07:47.369Z,9.10
2023-03-24T23:12:51.877Z,9.10
2023-03-24T23:17:53.788Z,9.20
2023-03-24T23:22:56.712Z,9.00
2023-03-24T23:27:58.967Z,9.10
2023-03-24T23:33:02.010Z,9.00
2023-03-24T23:38:05.302Z,9.10
2023-03-24T23:43:07.090Z,9.00
2023-03-24T23:48:08.929Z,8.90
2023-03-24T23:53:10.807Z,8.90
2023-03-24T23:58:12.599Z,8.70
